Estación de San Julian

Ultimos registro cada 15 minutos 35
Estación Fecha / Hora Temperatura Humedad Lluvia Velocidad Dirección Radiación Presion
35 San Julian 02-09-2026 08:30 13,5 86,8 0 0 115 313,1 986
34 San Julian 02-09-2026 08:15 12,2 89,1 0 0 115 66,9 985,9
33 San Julian 02-09-2026 08:00 11,3 90,5 0 0 55 78,1 985,9
32 San Julian 02-09-2026 07:45 11,2 90 0 0 49 36,9 985,6
31 San Julian 02-09-2026 07:30 11,5 88,3 0 0 55 24,4 985,6
30 San Julian 02-09-2026 07:15 10,9 89,2 0 0 66 10,6 985,7
29 San Julian 02-09-2026 07:00 11,8 84,9 0 0 70 0,6 985,5
28 San Julian 02-09-2026 06:45 12,9 83,2 0 0 83 0,6 985,2
27 San Julian 02-09-2026 06:30 12,6 82,7 0 0,5 97 0,6 984,9
26 San Julian 02-09-2026 06:15 12,7 82,9 0 1 80 0,6 984,8
25 San Julian 02-09-2026 06:00 13,5 81,7 0 1 58 0,6 984,8
24 San Julian 02-09-2026 05:45 13 84,3 0 0,5 65 0,6 984,6
23 San Julian 02-09-2026 05:30 12,3 88,4 0 0,5 79 0,6 984,9
22 San Julian 02-09-2026 05:15 11,7 89,2 0 0,5 102 0,6 984,8
21 San Julian 02-09-2026 05:00 11,4 89,1 0 0 117 0,6 985
20 San Julian 02-09-2026 04:45 12,1 86,6 0 0 126 0,6 985,3
19 San Julian 02-09-2026 04:30 12,3 86,8 0 0 175 0,6 985,2
18 San Julian 02-09-2026 04:15 12,2 87,2 0 0 175 0,6 985,3
17 San Julian 02-09-2026 04:00 12,2 86,7 0 0 173 0,6 985,2
16 San Julian 02-09-2026 03:45 12,4 86 0 0,5 161 0,6 985,5
15 San Julian 02-09-2026 03:30 12,5 85,7 0 0 128 0,6 985,4
14 San Julian 02-09-2026 03:15 11,6 89 0 0 114 0,6 985,4
13 San Julian 02-09-2026 03:00 11,7 88,2 0 0 114 0,6 985,4
12 San Julian 02-09-2026 02:45 11,5 88,8 0 0 111 0,6 985,4
11 San Julian 02-09-2026 02:30 11,6 88 0 0 110 0,6 985,5
10 San Julian 02-09-2026 02:15 11,9 86 0 0 110 0,6 985,6
9 San Julian 02-09-2026 02:00 12,3 85,3 0 0 108 0,6 985,4
8 San Julian 02-09-2026 01:45 12,8 83,1 0 0 107 0,6 985,4
7 San Julian 02-09-2026 01:30 12,8 82,1 0 0 102 0,6 985,5
6 San Julian 02-09-2026 01:15 14,5 75,6 0 1 129 0,6 985,6
5 San Julian 02-09-2026 01:00 13,5 82 0 0,5 218 0,6 985,6
4 San Julian 02-09-2026 00:45 13,1 84,4 0 0 244 0,6 985,5
3 San Julian 02-09-2026 00:30 12,5 87,7 0 0 243 0,6 985,9
2 San Julian 02-09-2026 00:15 11,9 89,4 0 0 243 0,6 986,2
1 San Julian 02-09-2026 00:00 11,2 87,4 0 0 243 0,6 986,3